Notice: Undefined index: language in /home/u908952976/domains/airgaviota-va.com/public_html/vam/index.php on line 25
AirGaviota-VA

... VIRTUAL FLIGHT...OUR PASSION



 FLIGHT DETAILS
Pilot: GVT462 Peter Voksan Aircraft: REDEYES - ANTONOV AN-2 (32V_64B) AN-2-GAVIOTAAIRVAAEROTAXI Distance: 78NM
Departure MUCL Arrival MUCF Duration 00:58
Validation Validated Type Regular Tail Number GV-AET
ZFW 4085 Block Fuel/Initial FOB 92/0 Flight Fuel 75
Passengers 10 Cargo 1800 Alternate MUVR
Departure Time Cruise Speed 100 Flight Level
Flight Type VFR Aircraft Type AN2 Weight Unit Kg
Date 28-04-2020 Pilot Comments Network IVAO
Crashed No Validator Comments Flight Rating 70

 ROUTE
ROUTE DCT
REMARKS
 FLIGHT FAILURES
Crashed OK Beacon off & Engine Running Fail KIAS Above 250 below 10000 FT OK
Lights OFF below 10000 FT OK Lights ON above 10000 FT OK Stall OK
Overspeed OK Flight paused OK Refueling OK
Slew detected OK Taxi & Taxi lights off OK Take off & lights off OK
Landing & lights off OK Landed in not planned airport OK Taxi Speed OK
Wrong altimeter in Take off Fail Wrong altimeter in Landing OK
 LANDING ANALYSIS
Landing wind 58º/15 kt Landing heading 47
Landing VS: -39.22 ft/min Landing IAS: 52.2 kt
Landing Force G 1 G Landing Bank -1.2
Landing Pitch 2.6 Landing Flaps 0
Navigation Lights ON Landing Lights ON
Beacon Lights OFF Strobe Lights OFF
 FLIGHT MAP
 ALTITUDE CHART
 FLIGHT FINANCIAL REPORT
Cargo:1800 .Price per Cargo Unit:15 27,000.00
Number of PAX:10 .Price per PAX:108 1,080.00
TOTAL 28,080.00
 MAIN EVENTS
DATE EVENTIASALTITUDE
2020-04-28 22:20:52 SIM ACARS version 1.4.1019
2020-04-28 22:20:52 BOARDING019
2020-04-28 22:23:06 STARTING ENGINE 1 019
2020-04-28 22:23:06 BEACON LIGHT OFF & ENGINE ON019
2020-04-28 22:27:09 FLAPS EXTENSION 2 % 019
2020-04-28 22:27:10 FLAPS EXTENSION 4 % 019
2020-04-28 22:27:10 FLAPS EXTENSION 6 % 019
2020-04-28 22:27:10 FLAPS EXTENSION 10 % 019
2020-04-28 22:27:10 FLAPS EXTENSION 11 % 019
2020-04-28 22:27:10 FLAPS EXTENSION 13 % 019
2020-04-28 22:27:11 FLAPS EXTENSION 15 % 019
2020-04-28 22:27:11 FLAPS EXTENSION 17 % 019
2020-04-28 22:27:11 FLAPS EXTENSION 19 % 019
2020-04-28 22:27:11 FLAPS EXTENSION 21 % 019
2020-04-28 22:27:11 FLAPS EXTENSION 23 % 019
2020-04-28 22:27:11 FLAPS EXTENSION 25 % 019
2020-04-28 22:27:12 FLAPS EXTENSION 28 % 019
2020-04-28 22:27:12 FLAPS EXTENSION 36 % 019
2020-04-28 22:27:13 FLAPS EXTENSION 37 % 019
2020-04-28 22:32:48 TAXI TO THE RWY 819
2020-04-28 22:34:20 ROLLING FOR TAKE OFF4120
2020-04-28 22:34:26 TAKE OFF5024
2020-04-28 22:35:14 FLAPS EXTENSION 35 % 46296
2020-04-28 22:35:15 FLAPS EXTENSION 32 % 46297
2020-04-28 22:35:15 FLAPS EXTENSION 30 % 46299
2020-04-28 22:35:15 FLAPS EXTENSION 27 % 46300
2020-04-28 22:35:16 FLAPS EXTENSION 27 % 46303
2020-04-28 22:35:56 FLAPS EXTENSION 24 % 49457
2020-04-28 22:36:03 FLAPS EXTENSION 23 % 50477
2020-04-28 22:36:03 FLAPS EXTENSION 20 % 50477
2020-04-28 22:36:03 FLAPS EXTENSION 18 % 50477
2020-04-28 22:36:04 FLAPS EXTENSION 16 % 50477
2020-04-28 22:36:04 FLAPS EXTENSION 14 % 50477
2020-04-28 22:36:04 FLAPS EXTENSION 12 % 50477
2020-04-28 22:36:04 FLAPS EXTENSION 10 % 50477
2020-04-28 22:36:04 FLAPS EXTENSION 7 % 50477
2020-04-28 22:36:04 FLAPS EXTENSION 5 % 50476
2020-04-28 22:36:05 FLAPS EXTENSION 5 % 51476
2020-04-28 22:36:06 CRUISE51475
2020-04-28 22:36:22 FLAPS EXTENSION 2 % 60551
2020-04-28 22:36:22 FLAPS EXTENSION 0 % 60552
2020-04-28 22:36:22 FLAPS EXTENSION 0 % 60553
2020-04-28 22:36:28 FLAPS EXTENSION 4 % 62578
2020-04-28 22:36:28 FLAPS EXTENSION 5 % 62578
2020-04-28 22:36:28 FLAPS EXTENSION 4 % 62580
2020-04-28 22:36:28 FLAPS EXTENSION 2 % 62581
2020-04-28 22:36:29 FLAPS EXTENSION 0 % 62581
2020-04-28 22:36:46 CLIMBING65670
2020-04-28 22:39:06 CRUISE661437
2020-04-28 22:39:36 CLIMBING651594
2020-04-28 22:40:16 CRUISE661749
2020-04-28 22:42:46 CLIMBING682113
2020-04-28 22:43:36 CRUISE722212
2020-04-28 22:48:16 DESCEND1191829
2020-04-28 22:49:46 CRUISE1011926
2020-04-28 22:51:36 DESCEND1031781
2020-04-28 22:52:46 CRUISE1071555
2020-04-28 22:53:46 CLIMBING991664
2020-04-28 22:55:16 CRUISE941775
2020-04-28 22:58:06 CLIMBING961807
2020-04-28 22:58:46 CRUISE911898
2020-04-28 23:07:26 DESCEND981772
2020-04-28 23:08:06 CRUISE1041730
2020-04-28 23:13:46 DESCEND931202
2020-04-28 23:14:16 CRUISE911161
2020-04-28 23:28:38 FLAPS EXTENSION 1 % 63738
2020-04-28 23:28:38 FLAPS EXTENSION 3 % 63738
2020-04-28 23:28:38 FLAPS EXTENSION 6 % 63737
2020-04-28 23:28:38 FLAPS EXTENSION 8 % 63737
2020-04-28 23:28:39 FLAPS EXTENSION 12 % 63737
2020-04-28 23:28:39 FLAPS EXTENSION 14 % 63736
2020-04-28 23:28:39 FLAPS EXTENSION 16 % 63736
2020-04-28 23:28:39 FLAPS EXTENSION 17 % 62736
2020-04-28 23:28:39 FLAPS EXTENSION 19 % 62736
2020-04-28 23:28:39 FLAPS EXTENSION 23 % 62736
2020-04-28 23:28:40 FLAPS EXTENSION 25 % 62736
2020-04-28 23:28:40 FLAPS EXTENSION 26 % 62736
2020-04-28 23:28:43 FLAPS EXTENSION 28 % 59734
2020-04-28 23:28:43 FLAPS EXTENSION 30 % 59734
2020-04-28 23:28:43 FLAPS EXTENSION 32 % 59734
2020-04-28 23:28:43 FLAPS EXTENSION 34 % 59733
2020-04-28 23:28:44 FLAPS EXTENSION 36 % 59733
2020-04-28 23:28:44 FLAPS EXTENSION 38 % 59733
2020-04-28 23:28:44 FLAPS EXTENSION 40 % 59733
2020-04-28 23:28:44 FLAPS EXTENSION 42 % 59733
2020-04-28 23:28:44 FLAPS EXTENSION 44 % 58732
2020-04-28 23:29:02 FLAPS EXTENSION 45 % 57719
2020-04-28 23:29:02 FLAPS EXTENSION 49 % 58722
2020-04-28 23:29:02 FLAPS EXTENSION 51 % 58722
2020-04-28 23:29:02 FLAPS EXTENSION 53 % 58722
2020-04-28 23:29:02 FLAPS EXTENSION 55 % 58722
2020-04-28 23:29:03 FLAPS EXTENSION 59 % 58723
2020-04-28 23:29:03 FLAPS EXTENSION 61 % 58723
2020-04-28 23:29:03 FLAPS EXTENSION 63 % 58723
2020-04-28 23:29:03 FLAPS EXTENSION 65 % 58724
2020-04-28 23:29:03 FLAPS EXTENSION 67 % 58721
2020-04-28 23:29:04 FLAPS EXTENSION 69 % 58722
2020-04-28 23:29:04 FLAPS EXTENSION 71 % 58722
2020-04-28 23:29:04 FLAPS EXTENSION 73 % 58723
2020-04-28 23:29:04 FLAPS EXTENSION 77 % 58724
2020-04-28 23:29:04 FLAPS EXTENSION 79 % 58725
2020-04-28 23:29:05 FLAPS EXTENSION 81 % 58726
2020-04-28 23:29:05 FLAPS EXTENSION 85 % 58728
2020-04-28 23:29:36 FLAPS EXTENSION 87 % 58754
2020-04-28 23:29:36 FLAPS EXTENSION 89 % 58753
2020-04-28 23:29:36 FLAPS EXTENSION 92 % 58753
2020-04-28 23:29:36 FLAPS EXTENSION 94 % 58752
2020-04-28 23:29:36 FLAPS EXTENSION 96 % 58751
2020-04-28 23:29:37 FLAPS EXTENSION 97 % 58750
2020-04-28 23:29:37 FLAPS EXTENSION 100 % 58750
2020-04-28 23:30:06 DESCEND58663
2020-04-28 23:31:16 CRUISE49476
2020-04-28 23:33:06 DESCEND54249
2020-04-28 23:33:56 CRUISE54124
2020-04-28 23:34:11 LANDING52115
2020-04-28 23:34:33 TAXI TO THE GATE20112
2020-04-28 23:40:01 STOPPING ENGINE 1 7112
2020-04-28 23:41:20 FLAPS EXTENSION 98 % 7112
2020-04-28 23:41:20 FLAPS EXTENSION 96 % 7112
2020-04-28 23:41:20 FLAPS EXTENSION 95 % 7112
2020-04-28 23:41:21 FLAPS EXTENSION 93 % 7112
2020-04-28 23:41:21 FLAPS EXTENSION 91 % 7112
2020-04-28 23:41:21 FLAPS EXTENSION 89 % 7112
2020-04-28 23:41:21 FLAPS EXTENSION 87 % 7112
2020-04-28 23:41:21 FLAPS EXTENSION 85 % 7112
2020-04-28 23:41:22 FLAPS EXTENSION 78 % 7112
2020-04-28 23:41:22 FLAPS EXTENSION 76 % 7112
2020-04-28 23:41:22 FLAPS EXTENSION 74 % 7112
2020-04-28 23:41:22 FLAPS EXTENSION 71 % 7112
2020-04-28 23:41:23 FLAPS EXTENSION 69 % 7112
2020-04-28 23:41:23 FLAPS EXTENSION 67 % 7112
2020-04-28 23:41:23 FLAPS EXTENSION 65 % 7112
2020-04-28 23:41:23 FLAPS EXTENSION 63 % 7112
2020-04-28 23:41:23 FLAPS EXTENSION 62 % 7112
2020-04-28 23:41:23 FLAPS EXTENSION 58 % 7112
2020-04-28 23:41:23 FLAPS EXTENSION 56 % 7112
2020-04-28 23:41:24 FLAPS EXTENSION 52 % 7112
2020-04-28 23:41:24 FLAPS EXTENSION 51 % 7112
2020-04-28 23:41:24 FLAPS EXTENSION 49 % 7112
2020-04-28 23:41:24 FLAPS EXTENSION 47 % 7112
2020-04-28 23:41:24 FLAPS EXTENSION 45 % 7112
2020-04-28 23:41:25 FLAPS EXTENSION 43 % 7112
2020-04-28 23:41:25 FLAPS EXTENSION 40 % 7112
2020-04-28 23:41:25 FLAPS EXTENSION 38 % 7112
2020-04-28 23:41:25 FLAPS EXTENSION 36 % 7112
2020-04-28 23:41:25 FLAPS EXTENSION 34 % 7112
2020-04-28 23:41:25 FLAPS EXTENSION 32 % 7112
2020-04-28 23:41:26 FLAPS EXTENSION 30 % 7112
2020-04-28 23:41:26 FLAPS EXTENSION 29 % 7112
2020-04-28 23:41:26 FLAPS EXTENSION 27 % 7112
2020-04-28 23:41:26 FLAPS EXTENSION 25 % 7112
2020-04-28 23:41:26 FLAPS EXTENSION 23 % 7112
2020-04-28 23:41:26 FLAPS EXTENSION 20 % 7112
2020-04-28 23:41:27 FLAPS EXTENSION 18 % 7112
2020-04-28 23:41:27 FLAPS EXTENSION 16 % 7112
2020-04-28 23:41:27 FLAPS EXTENSION 12 % 7112
2020-04-28 23:41:27 FLAPS EXTENSION 10 % 7112
2020-04-28 23:41:27 FLAPS EXTENSION 9 % 7112
2020-04-28 23:41:28 FLAPS EXTENSION 7 % 7112
2020-04-28 23:41:28 FLAPS EXTENSION 5 % 7112
2020-04-28 23:41:28 FLAPS EXTENSION 1 % 7112
2020-04-28 23:41:28 FLAPS EXTENSION 0 % 7112
 ACARS DATA
DATE IASGSALTITUDEFUEL CONSUMED OATFLIGHT STATUS
2020-04-28 22:21:510018014BOARDING
2020-04-28 22:22:510018014BOARDING
2020-04-28 22:23:510018114BOARDING
2020-04-28 22:24:510018114BOARDING
2020-04-28 22:25:510018214BOARDING
2020-04-28 22:26:510018314BOARDING
2020-04-28 22:27:510018414BOARDING
2020-04-28 22:28:510018514BOARDING
2020-04-28 22:29:511118614BOARDING
2020-04-28 22:30:510018714BOARDING
2020-04-28 22:31:510018814BOARDING
2020-04-28 22:32:5171019814TAXI TO THE RWY
2020-04-28 22:33:510018914TAXI TO THE RWY
2020-04-28 22:34:5146551931114CLIMBING
2020-04-28 22:35:5150524181314CLIMBING
2020-04-28 22:36:5165667351413CLIMBING
2020-04-28 22:37:51686711451612CLIMBING
2020-04-28 22:38:51666714211712CLIMBING
2020-04-28 22:39:51676916351811CLIMBING
2020-04-28 22:40:51656718942011CRUISE
2020-04-28 22:41:51667220082111CRUISE
2020-04-28 22:42:51676921352210CLIMBING
2020-04-28 22:43:51778222252410CRUISE
2020-04-28 22:44:51848922832510CRUISE
2020-04-28 22:45:519510121982610CRUISE
2020-04-28 22:46:519510121722710CRUISE
2020-04-28 22:47:51899622212910CRUISE
2020-04-28 22:48:519810519613011DESCEND
2020-04-28 22:49:5110010619403111CRUISE
2020-04-28 22:50:519910519073211CRUISE
2020-04-28 22:51:5110410817113411DESCEND
2020-04-28 22:52:5110410415553511CRUISE
2020-04-28 22:53:51969317073611CLIMBING
2020-04-28 22:54:51979417853811CLIMBING
2020-04-28 22:55:51969117903911CRUISE
2020-04-28 22:56:51999818864011CRUISE
2020-04-28 22:57:51999617324111CRUISE
2020-04-28 22:58:51918819134311CRUISE
2020-04-28 22:59:51929120124411CRUISE
2020-04-28 23:00:5110610519304511CRUISE
2020-04-28 23:01:51969619124711CRUISE
2020-04-28 23:02:51929019094811CRUISE
2020-04-28 23:03:51918819594911CRUISE
2020-04-28 23:04:51919218985011CRUISE
2020-04-28 23:05:51939519255211CRUISE
2020-04-28 23:06:51939819065311CRUISE
2020-04-28 23:07:5111010117325425DESCEND
2020-04-28 23:08:51908016885525CRUISE
2020-04-28 23:09:51958515735726CRUISE
2020-04-28 23:10:51958513955826CRUISE
2020-04-28 23:11:51938313325926CRUISE
2020-04-28 23:12:51938212696026CRUISE
2020-04-28 23:13:51928111886127DESCEND
2020-04-28 23:14:51806912466327CRUISE
2020-04-28 23:15:51867612166427CRUISE
2020-04-28 23:16:51897911556527CRUISE
2020-04-28 23:17:51877911576627CRUISE
2020-04-28 23:18:51887711356827CRUISE
2020-04-28 23:19:51817011356927CRUISE
2020-04-28 23:20:51867610787027CRUISE
2020-04-28 23:21:51827310947127CRUISE
2020-04-28 23:22:51857610597327CRUISE
2020-04-28 23:23:51817210867427CRUISE
2020-04-28 23:24:51837310237527CRUISE
2020-04-28 23:25:5183769537627CRUISE
2020-04-28 23:26:5185798777827CRUISE
2020-04-28 23:27:5183778147928CRUISE
2020-04-28 23:28:5157517228028CRUISE
2020-04-28 23:29:5157567068128CRUISE
2020-04-28 23:30:5148364598228DESCEND
2020-04-28 23:31:5150404498428CRUISE
2020-04-28 23:32:5157463408529CRUISE
2020-04-28 23:33:5152421258629DESCEND
2020-04-28 23:34:511391118729TAXI TO THE GATE
2020-04-28 23:35:511281128829TAXI TO THE GATE
2020-04-28 23:36:511141118928TAXI TO THE GATE
2020-04-28 23:37:511491119028TAXI TO THE GATE
2020-04-28 23:38:511151119128TAXI TO THE GATE
2020-04-28 23:39:51701119228TAXI TO THE GATE
2020-04-28 23:40:51701119228TAXI TO THE GATE